Time;durP1;ratioP1;P1;durP2;ratioP2;P2;SDS_P1;SDS_P2;PMS_P1;PMS_P2;Temp;Humidity;BMP_temperature;BMP_pressure;BME280_temperature;BME280_humidity;BME280_pressure;Samples;Min_cycle;Max_cycle;Signal;HPM_P1;HPM_P2
2023/04/20 00:10:01;;;;;;;45.7;33.3;;;;;;;8.8;86.6;98820;;;;
2023/04/20 00:20:02;;;;;;;45.7;33.3;;;;;;;8.9;86.2;98810;;;;
2023/04/20 00:30:01;;;;;;;45.7;33.3;;;;;;;8.9;86.2;98800;;;;
2023/04/20 00:41:01;;;;;;;46.9;36.8;;;;;;;9;86;98800;;;;
2023/04/20 00:51:01;;;;;;;46.9;36.8;;;;;;;9;85.8;98800;;;;
2023/04/20 01:01:02;;;;;;;46.9;36.8;;;;;;;9;85.4;98800;;;;
2023/04/20 01:12:02;;;;;;;45.6;33.3;;;;;;;8.9;85.6;98810;;;;
2023/04/20 01:23:01;;;;;;;45.6;33.3;;;;;;;8.9;85.8;98800;;;;
2023/04/20 01:33:01;;;;;;;47.7;35.2;;;;;;;9;85.8;98800;;;;
2023/04/20 01:44:01;;;;;;;47.7;35.2;;;;;;;9;85.6;98800;;;;
2023/04/20 01:55:01;;;;;;;47.7;35.2;;;;;;;9;85.6;98800;;;;
2023/04/20 02:06:01;;;;;;;44.3;33.1;;;;;;;9.1;85.4;98800;;;;
2023/04/20 02:16:01;;;;;;;44.3;33.1;;;;;;;9;85.3;98790;;;;
2023/04/20 02:26:01;;;;;;;44.3;33.1;;;;;;;8.9;86;98790;;;;
2023/04/20 02:37:01;;;;;;;46.3;33.6;;;;;;;8.9;86.1;98790;;;;
2023/04/20 02:48:01;;;;;;;46.3;33.6;;;;;;;8.8;86.3;98790;;;;
2023/04/20 02:58:02;;;;;;;46.3;33.6;;;;;;;8.9;86.5;98800;;;;
2023/04/20 03:09:02;;;;;;;46.2;34.9;;;;;;;9;86.4;98800;;;;
2023/04/20 03:20:02;;;;;;;46.2;34.9;;;;;;;9;86.2;98800;;;;
2023/04/20 03:30:02;;;;;;;46.2;34.9;;;;;;;9.1;86;98810;;;;
2023/04/20 03:41:01;;;;;;;43;33.2;;;;;;;9;86;98810;;;;
2023/04/20 03:52:01;;;;;;;43;33.2;;;;;;;8.8;86.6;98810;;;;
2023/04/20 04:03:01;;;;;;;46.3;34.9;;;;;;;8.9;87;98820;;;;
2023/04/20 04:14:03;;;;;;;46.3;34.9;;;;;;;9;87.2;98830;;;;
2023/04/20 04:24:02;;;;;;;46.3;34.9;;;;;;;9.1;86.9;98830;;;;
2023/04/20 04:34:02;;;;;;;47.1;36.9;;;;;;;9.2;86.5;98830;;;;
2023/04/20 04:45:03;;;;;;;47.1;36.9;;;;;;;9.3;86.4;98850;;;;
2023/04/20 04:55:02;;;;;;;47.1;36.9;;;;;;;9.4;85.8;98850;;;;
2023/04/20 05:06:02;;;;;;;53.7;37.3;;;;;;;9.5;85.8;98850;;;;
2023/04/20 05:17:02;;;;;;;53.7;37.3;;;;;;;9.7;85.6;98860;;;;
2023/04/20 05:28:01;;;;;;;53.7;37.3;;;;;;;10;84.9;98870;;;;
2023/04/20 05:38:04;;;;;;;52.7;41.2;;;;;;;10.3;84;98880;;;;
2023/04/20 05:48:01;;;;;;;52.7;41.2;;;;;;;10.4;83.1;98880;;;;
2023/04/20 05:58:02;;;;;;;52.7;41.2;;;;;;;10.5;82.5;98880;;;;
2023/04/20 06:08:02;;;;;;;42.3;35.3;;;;;;;10.8;82.9;98880;;;;
2023/04/20 06:19:01;;;;;;;42.3;35.3;;;;;;;11.2;81.2;98880;;;;
2023/04/20 06:30:02;;;;;;;42.3;35.3;;;;;;;11.6;79.4;98870;;;;
2023/04/20 06:41:02;;;;;;;42.3;30.8;;;;;;;12.1;77.6;98870;;;;
2023/04/20 06:51:02;;;;;;;42.3;30.8;;;;;;;12.4;75.3;98880;;;;
2023/04/20 07:01:02;;;;;;;42.3;30.8;;;;;;;12.6;75;98890;;;;
2023/04/20 07:12:02;;;;;;;26;23.1;;;;;;;12.6;73.8;98900;;;;
2023/04/20 07:22:02;;;;;;;26;23.1;;;;;;;13.2;75.6;98900;;;;
2023/04/20 07:32:02;;;;;;;26;23.1;;;;;;;13.6;73.5;98900;;;;
2023/04/20 07:42:02;;;;;;;26.9;21.5;;;;;;;13.9;69.5;98900;;;;
2023/04/20 07:53:02;;;;;;;26.9;21.5;;;;;;;14.6;67.9;98900;;;;
2023/04/20 08:03:02;;;;;;;21.3;16.1;;;;;;;14.6;67;98900;;;;
2023/04/20 08:13:02;;;;;;;21.3;16.1;;;;;;;15.1;65.5;98900;;;;
2023/04/20 08:23:02;;;;;;;21.3;16.1;;;;;;;14.9;66;98910;;;;
2023/04/20 08:34:01;;;;;;;20.8;14.1;;;;;;;15.2;64.7;98910;;;;
2023/04/20 08:44:02;;;;;;;20.8;14.1;;;;;;;15.2;64.7;98920;;;;
2023/04/20 08:55:01;;;;;;;20.8;14.1;;;;;;;15.1;64.7;98910;;;;
2023/04/20 09:06:02;;;;;;;19.3;15.4;;;;;;;14.8;65.7;98920;;;;
2023/04/20 09:16:02;;;;;;;19.3;15.4;;;;;;;14.9;65.9;98920;;;;
2023/04/20 09:27:02;;;;;;;19.3;15.4;;;;;;;15.1;65.5;98920;;;;
2023/04/20 09:37:02;;;;;;;20.2;15.2;;;;;;;15.7;63.1;98920;;;;
2023/04/20 09:47:02;;;;;;;20.2;15.2;;;;;;;15.7;63.8;98920;;;;
2023/04/20 09:58:02;;;;;;;20.2;15.2;;;;;;;16.2;61.5;98910;;;;
2023/04/20 10:08:02;;;;;;;20;14;;;;;;;16.1;61.1;98910;;;;
2023/04/20 10:19:02;;;;;;;20;14;;;;;;;16.2;62.8;98900;;;;
2023/04/20 10:30:02;;;;;;;20;14;;;;;;;16.3;61.7;98890;;;;
2023/04/20 10:40:03;;;;;;;18.1;14.3;;;;;;;16.1;61.3;98890;;;;
2023/04/20 10:51:02;;;;;;;18.1;14.3;;;;;;;15.1;63.7;98890;;;;
2023/04/20 11:02:02;;;;;;;18.1;14.3;;;;;;;15.8;63.7;98890;;;;
2023/04/20 11:12:02;;;;;;;15.3;12.1;;;;;;;15.9;62.8;98880;;;;
2023/04/20 11:23:04;;;;;;;15.3;12.1;;;;;;;16.4;61;98870;;;;
2023/04/20 11:34:02;;;;;;;12.7;9.8;;;;;;;17;61.4;98870;;;;
2023/04/20 11:45:02;;;;;;;12.7;9.8;;;;;;;17.5;58.4;98870;;;;
2023/04/20 11:55:02;;;;;;;12.7;9.8;;;;;;;18.2;56.9;98870;;;;
2023/04/20 12:06:02;;;;;;;14.3;8.8;;;;;;;17.1;58.4;98870;;;;
2023/04/20 12:16:02;;;;;;;14.3;8.8;;;;;;;17;58.2;98850;;;;
2023/04/20 12:27:02;;;;;;;14.3;8.8;;;;;;;16.8;59.5;98850;;;;
2023/04/20 12:37:02;;;;;;;12.9;8.3;;;;;;;17;60.3;98850;;;;
2023/04/20 12:48:02;;;;;;;12.9;8.3;;;;;;;17.9;59.2;98840;;;;
2023/04/20 12:58:02;;;;;;;12.9;8.3;;;;;;;17.7;57.1;98840;;;;
2023/04/20 13:09:03;;;;;;;12.5;7;;;;;;;17.6;55.4;98830;;;;
2023/04/20 13:20:03;;;;;;;12.5;7;;;;;;;18;54.1;98820;;;;
2023/04/20 13:30:03;;;;;;;12.5;7;;;;;;;17.9;52.9;98820;;;;
2023/04/20 13:41:02;;;;;;;9.8;4.9;;;;;;;17.5;54.8;98820;;;;
2023/04/20 13:52:02;;;;;;;9.8;4.9;;;;;;;17.6;54.6;98820;;;;
2023/04/20 14:02:02;;;;;;;9.8;4.9;;;;;;;17.9;56.6;98810;;;;
2023/04/20 14:12:02;;;;;;;16.6;6;;;;;;;17.6;55.4;98810;;;;
2023/04/20 14:23:02;;;;;;;16.6;6;;;;;;;17.7;57;98810;;;;
2023/04/20 14:34:02;;;;;;;14.2;5.6;;;;;;;18;54.8;98810;;;;
2023/04/20 14:44:02;;;;;;;14.2;5.6;;;;;;;17.7;53.7;98800;;;;
2023/04/20 14:55:02;;;;;;;14.2;5.6;;;;;;;17.1;55.5;98810;;;;
2023/04/20 15:06:02;;;;;;;9.5;4.5;;;;;;;17;54;98810;;;;
2023/04/20 15:17:02;;;;;;;9.5;4.5;;;;;;;17.2;54.4;98810;;;;
2023/04/20 15:28:02;;;;;;;9.5;4.5;;;;;;;16.7;55;98810;;;;
2023/04/20 15:38:02;;;;;;;13.8;6.8;;;;;;;16.6;55.7;98800;;;;
2023/04/20 15:49:02;;;;;;;13.8;6.8;;;;;;;16.6;55.3;98800;;;;
2023/04/20 15:59:02;;;;;;;13.8;6.8;;;;;;;16.5;57;98800;;;;
2023/04/20 16:09:02;;;;;;;14.5;7.7;;;;;;;16.5;56.8;98800;;;;
2023/04/20 16:19:02;;;;;;;14.5;7.7;;;;;;;16.2;57;98800;;;;
2023/04/20 16:30:02;;;;;;;14.5;7.7;;;;;;;16;57.7;98800;;;;
2023/04/20 16:41:02;;;;;;;45.5;34.4;;;;;;;15.9;58.8;98810;;;;
2023/04/20 16:52:02;;;;;;;45.5;34.4;;;;;;;15.6;59.3;98810;;;;
2023/04/20 17:03:02;;;;;;;31.5;21;;;;;;;15.4;59.7;98810;;;;
2023/04/20 17:13:02;;;;;;;31.5;21;;;;;;;15.1;60.3;98810;;;;
2023/04/20 17:24:02;;;;;;;31.5;21;;;;;;;14.8;60.9;98810;;;;
2023/04/20 17:35:03;;;;;;;19.8;12.6;;;;;;;14.5;62.2;98820;;;;
2023/04/20 17:45:02;;;;;;;19.8;12.6;;;;;;;14.1;63.3;98820;;;;
2023/04/20 17:56:03;;;;;;;19.8;12.6;;;;;;;13.5;64.3;98820;;;;
2023/04/20 18:07:02;;;;;;;26.4;14.4;;;;;;;12.8;64.9;98820;;;;
2023/04/20 18:17:02;;;;;;;26.4;14.4;;;;;;;12.3;67.3;98810;;;;
2023/04/20 18:28:02;;;;;;;26.4;14.4;;;;;;;12;70.1;98820;;;;
2023/04/20 18:39:03;;;;;;;13.3;6.3;;;;;;;11.8;72.6;98820;;;;
2023/04/20 18:49:02;;;;;;;13.3;6.3;;;;;;;11.8;73.3;98820;;;;
2023/04/20 19:00:06;;;;;;;13.3;6.3;;;;;;;11.8;73.3;98830;;;;
2023/04/20 19:11:02;;;;;;;95.8;59;;;;;;;11.7;73.2;98830;;;;
2023/04/20 19:22:02;;;;;;;95.8;59;;;;;;;11.5;73.3;98830;;;;
2023/04/20 19:33:03;;;;;;;21.6;14.1;;;;;;;11.1;72.6;98820;;;;
2023/04/20 19:44:05;;;;;;;21.6;14.1;;;;;;;10.6;75;98820;;;;
2023/04/20 19:55:02;;;;;;;21.6;14.1;;;;;;;10.3;74.6;98830;;;;
2023/04/20 20:05:02;;;;;;;23.5;12.8;;;;;;;10;75;98820;;;;
2023/04/20 20:15:02;;;;;;;23.5;12.8;;;;;;;9.7;77.8;98820;;;;
2023/04/20 20:26:02;;;;;;;23.5;12.8;;;;;;;9.6;77.9;98810;;;;
2023/04/20 20:36:03;;;;;;;19.9;12.5;;;;;;;9.4;78.1;98810;;;;
2023/04/20 20:46:02;;;;;;;19.9;12.5;;;;;;;9.3;78.4;98820;;;;
2023/04/20 20:56:02;;;;;;;19.9;12.5;;;;;;;9.1;78;98820;;;;
2023/04/20 21:07:02;;;;;;;20.8;11.9;;;;;;;8.8;78.5;98820;;;;
2023/04/20 21:17:03;;;;;;;20.8;11.9;;;;;;;8.7;81.2;98820;;;;
2023/04/20 21:27:02;;;;;;;20.8;11.9;;;;;;;8.5;79.9;98820;;;;
2023/04/20 21:37:04;;;;;;;24.9;13;;;;;;;8.3;80.6;98820;;;;
2023/04/20 21:48:02;;;;;;;24.9;13;;;;;;;8.2;82.3;98830;;;;
2023/04/20 21:58:02;;;;;;;24.9;13;;;;;;;8.1;82.1;98830;;;;
2023/04/20 22:09:03;;;;;;;18.7;11.8;;;;;;;7.9;82;98830;;;;
2023/04/20 22:19:03;;;;;;;18.7;11.8;;;;;;;7.8;83;98820;;;;
2023/04/20 22:30:02;;;;;;;18.7;11.8;;;;;;;7.6;82.3;98820;;;;
2023/04/20 22:41:02;;;;;;;20.6;11.9;;;;;;;7.4;82.3;98820;;;;
2023/04/20 22:52:03;;;;;;;20.6;11.9;;;;;;;7.2;82.3;98830;;;;
2023/04/20 23:02:02;;;;;;;19;10.6;;;;;;;7.1;82.9;98830;;;;
2023/04/20 23:13:03;;;;;;;19;10.6;;;;;;;6.9;83.1;98840;;;;
2023/04/20 23:23:02;;;;;;;19;10.6;;;;;;;6.8;83.6;98840;;;;
2023/04/20 23:34:02;;;;;;;21.5;11;;;;;;;6.6;83.9;98830;;;;
2023/04/20 23:45:02;;;;;;;21.5;11;;;;;;;6.6;85.2;98830;;;;
2023/04/20 23:56:02;;;;;;;21.5;11;;;;;;;6.6;85.2;98830;;;;
